sensor_id;sensor_type;location;lat;lon;timestamp;pressure;altitude;pressure_sealevel;temperature;humidity
73566;BME280;61846;52.970;-3.168;2022-11-20T00:00:10;99828.62;;;10.25;44.41
73566;BME280;61846;52.970;-3.168;2022-11-20T00:02:34;99823.73;;;9.75;44.32
73566;BME280;61846;52.970;-3.168;2022-11-20T00:05:00;99822.69;;;8.96;47.19
73566;BME280;61846;52.970;-3.168;2022-11-20T00:07:25;99819.29;;;8.58;47.33
73566;BME280;61846;52.970;-3.168;2022-11-20T00:09:51;99808.16;;;9.49;46.36
73566;BME280;61846;52.970;-3.168;2022-11-20T00:12:17;99809.74;;;9.33;47.10
73566;BME280;61846;52.970;-3.168;2022-11-20T00:14:42;99798.61;;;9.45;46.86
73566;BME280;61846;52.970;-3.168;2022-11-20T00:17:08;99798.35;;;8.33;49.11
73566;BME280;61846;52.970;-3.168;2022-11-20T00:19:33;99790.48;;;9.55;46.60
73566;BME280;61846;52.970;-3.168;2022-11-20T00:21:59;99780.11;;;9.22;46.60
73566;BME280;61846;52.970;-3.168;2022-11-20T00:24:24;99776.80;;;9.70;46.74
73566;BME280;61846;52.970;-3.168;2022-11-20T00:26:49;99772.35;;;9.74;46.77
73566;BME280;61846;52.970;-3.168;2022-11-20T00:29:15;99770.06;;;9.12;47.39
73566;BME280;61846;52.970;-3.168;2022-11-20T00:31:41;99758.31;;;9.27;46.85
73566;BME280;61846;52.970;-3.168;2022-11-20T00:34:06;99762.10;;;8.76;48.97
73566;BME280;61846;52.970;-3.168;2022-11-20T00:36:33;99755.28;;;9.26;47.61
73566;BME280;61846;52.970;-3.168;2022-11-20T00:38:58;99754.13;;;9.06;48.09
73566;BME280;61846;52.970;-3.168;2022-11-20T00:41:23;99744.12;;;9.83;46.05
73566;BME280;61846;52.970;-3.168;2022-11-20T00:43:48;99739.25;;;9.53;47.10
73566;BME280;61846;52.970;-3.168;2022-11-20T00:46:15;99742.07;;;9.10;48.57
73566;BME280;61846;52.970;-3.168;2022-11-20T00:48:39;99727.11;;;9.39;47.65
73566;BME280;61846;52.970;-3.168;2022-11-20T00:51:05;99719.84;;;9.25;48.10
73566;BME280;61846;52.970;-3.168;2022-11-20T00:53:31;99715.75;;;8.80;49.10
73566;BME280;61846;52.970;-3.168;2022-11-20T00:55:57;99712.31;;;8.43;49.78
73566;BME280;61846;52.970;-3.168;2022-11-20T00:58:21;99709.39;;;9.47;48.05
73566;BME280;61846;52.970;-3.168;2022-11-20T01:00:46;99705.92;;;9.40;48.15
73566;BME280;61846;52.970;-3.168;2022-11-20T01:03:11;99697.50;;;9.62;47.86
73566;BME280;61846;52.970;-3.168;2022-11-20T01:05:37;99693.90;;;8.74;49.16
73566;BME280;61846;52.970;-3.168;2022-11-20T01:08:03;99690.46;;;8.66;50.24
73566;BME280;61846;52.970;-3.168;2022-11-20T01:10:29;99684.26;;;8.56;49.39
73566;BME280;61846;52.970;-3.168;2022-11-20T01:12:54;99681.16;;;9.20;48.28
73566;BME280;61846;52.970;-3.168;2022-11-20T01:15:20;99682.33;;;7.63;51.04
73566;BME280;61846;52.970;-3.168;2022-11-20T01:17:45;99673.25;;;9.17;48.75
73566;BME280;61846;52.970;-3.168;2022-11-20T01:20:10;99670.94;;;8.81;49.43
73566;BME280;61846;52.970;-3.168;2022-11-20T01:22:35;99661.04;;;9.46;48.17
73566;BME280;61846;52.970;-3.168;2022-11-20T01:25:01;99662.29;;;9.18;48.92
73566;BME280;61846;52.970;-3.168;2022-11-20T01:27:26;99657.24;;;9.60;48.21
73566;BME280;61846;52.970;-3.168;2022-11-20T01:29:52;99655.54;;;8.58;50.08
73566;BME280;61846;52.970;-3.168;2022-11-20T01:32:17;99657.56;;;9.47;49.55
73566;BME280;61846;52.970;-3.168;2022-11-20T01:34:43;99657.15;;;9.08;49.29
73566;BME280;61846;52.970;-3.168;2022-11-20T01:37:09;99654.62;;;8.53;49.63
73566;BME280;61846;52.970;-3.168;2022-11-20T01:39:34;99649.26;;;9.48;48.47
73566;BME280;61846;52.970;-3.168;2022-11-20T01:41:59;99649.94;;;8.98;49.69
73566;BME280;61846;52.970;-3.168;2022-11-20T01:46:55;99644.43;;;8.31;50.58
73566;BME280;61846;52.970;-3.168;2022-11-20T01:49:18;99634.20;;;9.41;48.92
73566;BME280;61846;52.970;-3.168;2022-11-20T01:51:45;99629.31;;;9.90;48.15
73566;BME280;61846;52.970;-3.168;2022-11-20T01:54:08;99624.16;;;10.38;47.09
73566;BME280;61846;52.970;-3.168;2022-11-20T01:56:35;99629.92;;;9.97;46.85
73566;BME280;61846;52.970;-3.168;2022-11-20T01:58:59;99629.09;;;9.07;48.74
73566;BME280;61846;52.970;-3.168;2022-11-20T02:01:23;99624.25;;;9.55;47.56
73566;BME280;61846;52.970;-3.168;2022-11-20T02:03:49;99625.93;;;10.38;46.64
73566;BME280;61846;52.970;-3.168;2022-11-20T02:06:19;99631.25;;;10.59;46.14
73566;BME280;61846;52.970;-3.168;2022-11-20T02:08:39;99627.21;;;10.92;45.05
73566;BME280;61846;52.970;-3.168;2022-11-20T02:11:04;99623.15;;;10.98;45.00
73566;BME280;61846;52.970;-3.168;2022-11-20T02:13:30;99617.86;;;11.06;44.56
73566;BME280;61846;52.970;-3.168;2022-11-20T02:15:55;99611.17;;;11.63;44.28
73566;BME280;61846;52.970;-3.168;2022-11-20T02:18:21;99604.29;;;10.72;44.57
73566;BME280;61846;52.970;-3.168;2022-11-20T02:20:48;99598.21;;;11.38;44.14
73566;BME280;61846;52.970;-3.168;2022-11-20T02:23:14;99592.28;;;11.18;44.04
73566;BME280;61846;52.970;-3.168;2022-11-20T02:25:38;99581.77;;;11.25;44.10
73566;BME280;61846;52.970;-3.168;2022-11-20T02:28:03;99572.75;;;11.12;44.08
73566;BME280;61846;52.970;-3.168;2022-11-20T02:30:28;99573.12;;;11.05;44.25
73566;BME280;61846;52.970;-3.168;2022-11-20T02:32:53;99568.54;;;10.98;44.91
73566;BME280;61846;52.970;-3.168;2022-11-20T02:35:39;99571.90;;;10.06;46.12
73566;BME280;61846;52.970;-3.168;2022-11-20T02:37:48;99561.05;;;11.28;44.45
73566;BME280;61846;52.970;-3.168;2022-11-20T02:40:11;99557.56;;;10.76;44.72
73566;BME280;61846;52.970;-3.168;2022-11-20T02:42:36;99556.17;;;10.49;46.11
73566;BME280;61846;52.970;-3.168;2022-11-20T02:45:02;99554.39;;;10.55;45.65
73566;BME280;61846;52.970;-3.168;2022-11-20T02:47:27;99550.94;;;8.36;51.00
73566;BME280;61846;52.970;-3.168;2022-11-20T02:49:53;99537.65;;;9.74;48.62
73566;BME280;61846;52.970;-3.168;2022-11-20T02:52:19;99534.30;;;10.11;47.47
73566;BME280;61846;52.970;-3.168;2022-11-20T02:54:44;99534.81;;;10.13;47.83
73566;BME280;61846;52.970;-3.168;2022-11-20T02:57:09;99531.10;;;7.76;52.48
73566;BME280;61846;52.970;-3.168;2022-11-20T02:59:35;99527.46;;;9.03;50.12
73566;BME280;61846;52.970;-3.168;2022-11-20T03:02:01;99528.22;;;9.02;50.15
73566;BME280;61846;52.970;-3.168;2022-11-20T03:04:26;99539.54;;;9.79;48.81
73566;BME280;61846;52.970;-3.168;2022-11-20T03:06:52;99550.41;;;10.40;47.82
73566;BME280;61846;52.970;-3.168;2022-11-20T03:09:18;99549.61;;;9.85;47.66
73566;BME280;61846;52.970;-3.168;2022-11-20T03:11:43;99543.53;;;9.75;48.23
73566;BME280;61846;52.970;-3.168;2022-11-20T03:14:09;99535.26;;;10.25;47.48
73566;BME280;61846;52.970;-3.168;2022-11-20T03:16:34;99536.84;;;10.82;46.25
73566;BME280;61846;52.970;-3.168;2022-11-20T03:19:00;99534.73;;;10.84;46.40
73566;BME280;61846;52.970;-3.168;2022-11-20T03:21:25;99530.27;;;11.07;45.58
73566;BME280;61846;52.970;-3.168;2022-11-20T03:23:53;99534.42;;;11.26;45.56
73566;BME280;61846;52.970;-3.168;2022-11-20T03:26:19;99534.70;;;11.35;45.33
73566;BME280;61846;52.970;-3.168;2022-11-20T03:28:46;99536.76;;;11.43;44.91
73566;BME280;61846;52.970;-3.168;2022-11-20T03:31:09;99546.94;;;11.75;44.48
73566;BME280;61846;52.970;-3.168;2022-11-20T03:33:33;99551.91;;;11.76;44.35
73566;BME280;61846;52.970;-3.168;2022-11-20T03:36:01;99553.89;;;11.87;44.41
73566;BME280;61846;52.970;-3.168;2022-11-20T03:38:24;99547.49;;;11.87;44.52
73566;BME280;61846;52.970;-3.168;2022-11-20T03:40:50;99548.64;;;11.93;44.49
73566;BME280;61846;52.970;-3.168;2022-11-20T03:43:15;99542.71;;;11.94;44.46
73566;BME280;61846;52.970;-3.168;2022-11-20T03:45:41;99539.80;;;11.83;44.50
73566;BME280;61846;52.970;-3.168;2022-11-20T03:48:06;99540.27;;;12.24;44.01
73566;BME280;61846;52.970;-3.168;2022-11-20T03:50:31;99541.17;;;12.22;43.87
73566;BME280;61846;52.970;-3.168;2022-11-20T03:52:57;99539.65;;;11.81;43.77
73566;BME280;61846;52.970;-3.168;2022-11-20T03:55:23;99539.67;;;11.77;43.42
73566;BME280;61846;52.970;-3.168;2022-11-20T03:57:48;99535.71;;;12.01;43.21
73566;BME280;61846;52.970;-3.168;2022-11-20T04:00:15;99529.09;;;12.32;43.07
73566;BME280;61846;52.970;-3.168;2022-11-20T04:02:40;99528.09;;;12.25;42.73
73566;BME280;61846;52.970;-3.168;2022-11-20T04:05:06;99528.82;;;12.19;42.57
73566;BME280;61846;52.970;-3.168;2022-11-20T04:07:33;99535.00;;;11.94;42.42
73566;BME280;61846;52.970;-3.168;2022-11-20T04:09:56;99541.88;;;12.13;42.12
73566;BME280;61846;52.970;-3.168;2022-11-20T04:12:22;99548.97;;;11.63;41.92
73566;BME280;61846;52.970;-3.168;2022-11-20T04:14:48;99552.64;;;11.91;41.90
73566;BME280;61846;52.970;-3.168;2022-11-20T04:17:13;99557.30;;;12.15;41.85
73566;BME280;61846;52.970;-3.168;2022-11-20T04:19:39;99556.48;;;11.88;41.72
73566;BME280;61846;52.970;-3.168;2022-11-20T04:22:04;99561.83;;;12.08;41.57
73566;BME280;61846;52.970;-3.168;2022-11-20T04:24:30;99560.96;;;11.39;41.94
73566;BME280;61846;52.970;-3.168;2022-11-20T04:26:56;99563.92;;;11.62;42.14
73566;BME280;61846;52.970;-3.168;2022-11-20T04:29:21;99565.73;;;11.13;42.60
73566;BME280;61846;52.970;-3.168;2022-11-20T04:31:47;99574.01;;;11.34;42.52
73566;BME280;61846;52.970;-3.168;2022-11-20T04:34:13;99576.26;;;11.64;41.99
73566;BME280;61846;52.970;-3.168;2022-11-20T04:36:38;99584.02;;;11.80;41.99
73566;BME280;61846;52.970;-3.168;2022-11-20T04:39:06;99581.83;;;11.68;41.68
73566;BME280;61846;52.970;-3.168;2022-11-20T04:41:31;99584.47;;;11.31;41.87
73566;BME280;61846;52.970;-3.168;2022-11-20T04:43:57;99585.25;;;11.18;41.81
73566;BME280;61846;52.970;-3.168;2022-11-20T04:46:21;99585.51;;;10.90;42.51
73566;BME280;61846;52.970;-3.168;2022-11-20T04:48:47;99585.65;;;11.16;42.51
73566;BME280;61846;52.970;-3.168;2022-11-20T04:51:12;99586.81;;;10.67;42.66
73566;BME280;61846;52.970;-3.168;2022-11-20T04:53:38;99578.61;;;11.08;42.68
73566;BME280;61846;52.970;-3.168;2022-11-20T04:56:05;99575.34;;;10.95;42.24
73566;BME280;61846;52.970;-3.168;2022-11-20T04:58:29;99572.54;;;10.74;42.85
73566;BME280;61846;52.970;-3.168;2022-11-20T05:01:00;99570.19;;;10.99;42.31
73566;BME280;61846;52.970;-3.168;2022-11-20T05:03:20;99569.54;;;10.47;42.72
73566;BME280;61846;52.970;-3.168;2022-11-20T05:05:46;99559.79;;;11.26;42.02
73566;BME280;61846;52.970;-3.168;2022-11-20T05:08:12;99556.80;;;11.09;42.27
73566;BME280;61846;52.970;-3.168;2022-11-20T05:10:38;99562.37;;;11.22;42.34
73566;BME280;61846;52.970;-3.168;2022-11-20T05:13:03;99563.76;;;10.91;42.44
73566;BME280;61846;52.970;-3.168;2022-11-20T05:15:27;99567.65;;;10.75;42.13
73566;BME280;61846;52.970;-3.168;2022-11-20T05:17:53;99571.15;;;10.86;42.65
73566;BME280;61846;52.970;-3.168;2022-11-20T05:20:20;99574.34;;;10.42;43.23
73566;BME280;61846;52.970;-3.168;2022-11-20T05:22:44;99585.61;;;9.88;44.65
73566;BME280;61846;52.970;-3.168;2022-11-20T05:25:10;99584.21;;;9.94;44.55
73566;BME280;61846;52.970;-3.168;2022-11-20T05:27:35;99588.89;;;10.25;44.24
73566;BME280;61846;52.970;-3.168;2022-11-20T05:30:01;99590.07;;;10.44;43.66
73566;BME280;61846;52.970;-3.168;2022-11-20T05:32:26;99594.15;;;10.22;44.33
73566;BME280;61846;52.970;-3.168;2022-11-20T05:34:52;99599.87;;;10.69;44.09
73566;BME280;61846;52.970;-3.168;2022-11-20T05:37:17;99599.86;;;10.53;44.08
73566;BME280;61846;52.970;-3.168;2022-11-20T05:39:42;99605.78;;;10.18;44.34
73566;BME280;61846;52.970;-3.168;2022-11-20T05:42:08;99606.37;;;10.45;43.93
73566;BME280;61846;52.970;-3.168;2022-11-20T05:44:33;99602.82;;;10.46;43.88
73566;BME280;61846;52.970;-3.168;2022-11-20T05:46:59;99606.96;;;10.21;43.86
73566;BME280;61846;52.970;-3.168;2022-11-20T05:49:24;99604.57;;;10.55;43.54
73566;BME280;61846;52.970;-3.168;2022-11-20T05:51:50;99601.52;;;10.68;42.90
73566;BME280;61846;52.970;-3.168;2022-11-20T05:54:16;99603.81;;;10.48;42.99
73566;BME280;61846;52.970;-3.168;2022-11-20T05:56:41;99601.56;;;10.55;43.29
73566;BME280;61846;52.970;-3.168;2022-11-20T05:59:07;99597.95;;;10.80;42.62
73566;BME280;61846;52.970;-3.168;2022-11-20T06:01:32;99590.34;;;10.02;43.40
73566;BME280;61846;52.970;-3.168;2022-11-20T06:03:57;99589.56;;;10.37;43.02
73566;BME280;61846;52.970;-3.168;2022-11-20T06:06:23;99591.83;;;10.36;43.50
73566;BME280;61846;52.970;-3.168;2022-11-20T06:08:49;99591.42;;;10.12;43.90
73566;BME280;61846;52.970;-3.168;2022-11-20T06:11:15;99594.67;;;9.64;44.31
73566;BME280;61846;52.970;-3.168;2022-11-20T06:13:39;99600.68;;;10.03;44.07
73566;BME280;61846;52.970;-3.168;2022-11-20T06:16:05;99601.58;;;9.98;43.70
73566;BME280;61846;52.970;-3.168;2022-11-20T06:18:30;99608.01;;;10.43;43.10
73566;BME280;61846;52.970;-3.168;2022-11-20T06:21:02;99610.54;;;10.30;43.31
73566;BME280;61846;52.970;-3.168;2022-11-20T06:23:21;99621.65;;;10.22;43.46
73566;BME280;61846;52.970;-3.168;2022-11-20T06:25:46;99623.78;;;9.36;44.17
73566;BME280;61846;52.970;-3.168;2022-11-20T06:28:12;99625.52;;;9.86;44.21
73566;BME280;61846;52.970;-3.168;2022-11-20T06:30:37;99631.09;;;9.81;43.92
73566;BME280;61846;52.970;-3.168;2022-11-20T06:33:03;99635.25;;;9.86;44.32
73566;BME280;61846;52.970;-3.168;2022-11-20T06:35:29;99644.87;;;10.21;43.79
73566;BME280;61846;52.970;-3.168;2022-11-20T06:37:55;99649.10;;;10.05;44.21
73566;BME280;61846;52.970;-3.168;2022-11-20T06:40:20;99651.07;;;10.07;43.78
73566;BME280;61846;52.970;-3.168;2022-11-20T06:42:46;99660.16;;;9.52;44.99
73566;BME280;61846;52.970;-3.168;2022-11-20T06:45:11;99660.24;;;10.10;43.81
73566;BME280;61846;52.970;-3.168;2022-11-20T06:47:37;99656.94;;;9.94;43.78
73566;BME280;61846;52.970;-3.168;2022-11-20T06:50:03;99654.12;;;9.84;44.54
73566;BME280;61846;52.970;-3.168;2022-11-20T06:52:28;99648.85;;;9.64;44.34
73566;BME280;61846;52.970;-3.168;2022-11-20T06:54:54;99656.64;;;9.96;43.81
73566;BME280;61846;52.970;-3.168;2022-11-20T06:57:20;99654.61;;;9.69;44.34
73566;BME280;61846;52.970;-3.168;2022-11-20T06:59:45;99659.74;;;10.08;44.63
73566;BME280;61846;52.970;-3.168;2022-11-20T07:02:10;99666.12;;;10.15;44.50
73566;BME280;61846;52.970;-3.168;2022-11-20T07:04:35;99671.75;;;9.88;44.58
73566;BME280;61846;52.970;-3.168;2022-11-20T07:07:01;99674.20;;;9.95;44.60
73566;BME280;61846;52.970;-3.168;2022-11-20T07:09:26;99672.65;;;9.55;44.82
73566;BME280;61846;52.970;-3.168;2022-11-20T07:11:52;99662.56;;;9.54;45.29
73566;BME280;61846;52.970;-3.168;2022-11-20T07:14:18;99654.13;;;9.70;45.77
73566;BME280;61846;52.970;-3.168;2022-11-20T07:16:43;99655.52;;;9.46;46.34
73566;BME280;61846;52.970;-3.168;2022-11-20T07:19:09;99648.08;;;9.76;46.29
73566;BME280;61846;52.970;-3.168;2022-11-20T07:21:35;99646.31;;;9.96;46.21
73566;BME280;61846;52.970;-3.168;2022-11-20T07:24:00;99642.05;;;10.30;46.00
73566;BME280;61846;52.970;-3.168;2022-11-20T07:26:26;99642.46;;;10.13;46.16
73566;BME280;61846;52.970;-3.168;2022-11-20T07:28:51;99643.22;;;10.19;46.29
73566;BME280;61846;52.970;-3.168;2022-11-20T07:31:16;99648.65;;;9.04;48.75
73566;BME280;61846;52.970;-3.168;2022-11-20T07:33:42;99645.62;;;9.18;48.59
73566;BME280;61846;52.970;-3.168;2022-11-20T07:36:07;99638.23;;;9.26;47.91
73566;BME280;61846;52.970;-3.168;2022-11-20T07:38:32;99645.59;;;9.64;47.21
73566;BME280;61846;52.970;-3.168;2022-11-20T07:40:58;99657.55;;;9.81;47.20
73566;BME280;61846;52.970;-3.168;2022-11-20T07:43:23;99663.43;;;9.33;47.08
73566;BME280;61846;52.970;-3.168;2022-11-20T07:45:49;99667.80;;;9.86;46.72
73566;BME280;61846;52.970;-3.168;2022-11-20T07:48:14;99670.63;;;9.83;46.60
73566;BME280;61846;52.970;-3.168;2022-11-20T07:50:39;99665.58;;;10.22;46.21
73566;BME280;61846;52.970;-3.168;2022-11-20T07:53:06;99667.30;;;10.19;45.59
73566;BME280;61846;52.970;-3.168;2022-11-20T07:55:31;99674.64;;;10.36;45.54
73566;BME280;61846;52.970;-3.168;2022-11-20T07:57:56;99678.63;;;10.60;45.05
73566;BME280;61846;52.970;-3.168;2022-11-20T08:00:21;99676.69;;;10.49;44.80
73566;BME280;61846;52.970;-3.168;2022-11-20T08:02:47;99679.43;;;10.80;44.32
73566;BME280;61846;52.970;-3.168;2022-11-20T08:05:13;99677.41;;;9.23;44.23
73566;BME280;61846;52.970;-3.168;2022-11-20T08:07:39;99678.40;;;10.97;43.20
73566;BME280;61846;52.970;-3.168;2022-11-20T08:10:04;99679.63;;;10.97;43.84
73566;BME280;61846;52.970;-3.168;2022-11-20T08:12:29;99679.42;;;10.77;43.75
73566;BME280;61846;52.970;-3.168;2022-11-20T08:14:55;99684.23;;;11.35;43.64
73566;BME280;61846;52.970;-3.168;2022-11-20T08:17:20;99696.63;;;10.79;44.03
73566;BME280;61846;52.970;-3.168;2022-11-20T08:19:46;99708.92;;;11.16;44.13
73566;BME280;61846;52.970;-3.168;2022-11-20T08:22:12;99708.01;;;10.90;44.97
73566;BME280;61846;52.970;-3.168;2022-11-20T08:24:37;99708.89;;;10.68;45.66
73566;BME280;61846;52.970;-3.168;2022-11-20T08:27:03;99708.13;;;10.47;46.11
73566;BME280;61846;52.970;-3.168;2022-11-20T08:29:28;99713.44;;;10.32;46.69
73566;BME280;61846;52.970;-3.168;2022-11-20T08:31:53;99715.84;;;10.18;46.41
73566;BME280;61846;52.970;-3.168;2022-11-20T08:34:20;99709.32;;;10.23;46.18
73566;BME280;61846;52.970;-3.168;2022-11-20T08:36:44;99699.80;;;9.36;47.18
73566;BME280;61846;52.970;-3.168;2022-11-20T08:39:11;99695.56;;;10.39;46.04
73566;BME280;61846;52.970;-3.168;2022-11-20T08:41:35;99696.86;;;10.24;46.15
73566;BME280;61846;52.970;-3.168;2022-11-20T08:44:02;99694.51;;;10.64;45.25
73566;BME280;61846;52.970;-3.168;2022-11-20T08:46:28;99705.73;;;10.78;44.81
73566;BME280;61846;52.970;-3.168;2022-11-20T08:48:52;99701.10;;;10.39;45.12
73566;BME280;61846;52.970;-3.168;2022-11-20T08:51:19;99699.01;;;10.46;44.69
73566;BME280;61846;52.970;-3.168;2022-11-20T08:53:43;99699.23;;;10.36;45.24
73566;BME280;61846;52.970;-3.168;2022-11-20T08:56:09;99693.14;;;10.64;45.12
73566;BME280;61846;52.970;-3.168;2022-11-20T08:58:34;99696.47;;;11.04;44.69
73566;BME280;61846;52.970;-3.168;2022-11-20T09:01:00;99691.72;;;11.24;44.50
73566;BME280;61846;52.970;-3.168;2022-11-20T09:03:26;99690.03;;;11.25;43.40
73566;BME280;61846;52.970;-3.168;2022-11-20T09:05:51;99686.85;;;11.23;43.54
73566;BME280;61846;52.970;-3.168;2022-11-20T09:08:17;99690.37;;;12.07;43.26
73566;BME280;61846;52.970;-3.168;2022-11-20T09:10:42;99695.54;;;11.77;43.31
73566;BME280;61846;52.970;-3.168;2022-11-20T09:13:08;99697.44;;;11.62;43.52
73566;BME280;61846;52.970;-3.168;2022-11-20T09:15:34;99697.53;;;11.77;43.73
73566;BME280;61846;52.970;-3.168;2022-11-20T09:18:01;99702.17;;;11.94;43.83
73566;BME280;61846;52.970;-3.168;2022-11-20T09:20:24;99704.13;;;11.35;43.89
73566;BME280;61846;52.970;-3.168;2022-11-20T09:22:49;99709.75;;;11.74;43.18
73566;BME280;61846;52.970;-3.168;2022-11-20T09:25:14;99716.25;;;11.77;43.32
73566;BME280;61846;52.970;-3.168;2022-11-20T09:27:40;99716.84;;;11.86;43.20
73566;BME280;61846;52.970;-3.168;2022-11-20T09:30:06;99712.43;;;11.62;43.58
73566;BME280;61846;52.970;-3.168;2022-11-20T09:32:31;99711.96;;;11.69;44.14
73566;BME280;61846;52.970;-3.168;2022-11-20T09:34:57;99708.03;;;11.92;44.07
73566;BME280;61846;52.970;-3.168;2022-11-20T09:37:22;99711.00;;;11.73;43.54
73566;BME280;61846;52.970;-3.168;2022-11-20T09:39:48;99710.48;;;12.10;42.82
73566;BME280;61846;52.970;-3.168;2022-11-20T09:42:31;99709.70;;;12.23;42.64
73566;BME280;61846;52.970;-3.168;2022-11-20T09:44:48;99711.56;;;12.59;42.05
73566;BME280;61846;52.970;-3.168;2022-11-20T09:47:08;99704.77;;;12.07;42.19
73566;BME280;61846;52.970;-3.168;2022-11-20T09:49:38;99707.46;;;12.06;42.27
73566;BME280;61846;52.970;-3.168;2022-11-20T09:51:59;99700.60;;;12.00;42.51
73566;BME280;61846;52.970;-3.168;2022-11-20T09:54:22;99701.63;;;12.58;41.62
73566;BME280;61846;52.970;-3.168;2022-11-20T09:56:50;99702.89;;;12.68;41.67
73566;BME280;61846;52.970;-3.168;2022-11-20T09:59:23;99697.23;;;12.35;43.04
73566;BME280;61846;52.970;-3.168;2022-11-20T10:01:38;99688.11;;;12.57;41.25
73566;BME280;61846;52.970;-3.168;2022-11-20T10:04:06;99686.22;;;12.67;41.51
73566;BME280;61846;52.970;-3.168;2022-11-20T10:06:31;99682.62;;;12.97;40.97
73566;BME280;61846;52.970;-3.168;2022-11-20T10:09:01;99678.92;;;12.60;40.63
73566;BME280;61846;52.970;-3.168;2022-11-20T10:11:27;99681.44;;;12.94;39.30
73566;BME280;61846;52.970;-3.168;2022-11-20T10:13:53;99680.93;;;12.84;40.18
73566;BME280;61846;52.970;-3.168;2022-11-20T10:16:18;99685.50;;;12.95;39.41
73566;BME280;61846;52.970;-3.168;2022-11-20T10:18:49;99685.53;;;12.54;40.46
73566;BME280;61846;52.970;-3.168;2022-11-20T10:21:09;99685.80;;;12.12;40.30
73566;BME280;61846;52.970;-3.168;2022-11-20T10:23:41;99690.57;;;11.68;40.92
73566;BME280;61846;52.970;-3.168;2022-11-20T10:25:58;99696.24;;;11.52;41.06
73566;BME280;61846;52.970;-3.168;2022-11-20T10:28:28;99691.44;;;11.09;41.42
73566;BME280;61846;52.970;-3.168;2022-11-20T10:30:57;99689.92;;;11.34;41.35
73566;BME280;61846;52.970;-3.168;2022-11-20T10:33:16;99684.40;;;11.92;40.96
73566;BME280;61846;52.970;-3.168;2022-11-20T10:35:38;99679.09;;;12.04;41.04
73566;BME280;61846;52.970;-3.168;2022-11-20T10:38:04;99676.24;;;12.00;39.90
73566;BME280;61846;52.970;-3.168;2022-11-20T10:40:32;99674.36;;;11.99;39.94
73566;BME280;61846;52.970;-3.168;2022-11-20T10:42:56;99671.06;;;11.89;39.69
73566;BME280;61846;52.970;-3.168;2022-11-20T10:45:32;99670.94;;;12.12;40.15
73566;BME280;61846;52.970;-3.168;2022-11-20T10:47:43;99674.20;;;12.20;40.42
73566;BME280;61846;52.970;-3.168;2022-11-20T10:50:11;99665.56;;;12.01;40.48
73566;BME280;61846;52.970;-3.168;2022-11-20T10:52:41;99666.53;;;11.85;41.01
73566;BME280;61846;52.970;-3.168;2022-11-20T10:55:06;99661.27;;;11.20;41.53
73566;BME280;61846;52.970;-3.168;2022-11-20T10:57:38;99649.46;;;11.56;41.25
73566;BME280;61846;52.970;-3.168;2022-11-20T10:59:59;99643.21;;;12.25;40.62
73566;BME280;61846;52.970;-3.168;2022-11-20T11:02:18;99637.07;;;12.81;39.08
73566;BME280;61846;52.970;-3.168;2022-11-20T11:04:45;99632.02;;;11.62;40.32
73566;BME280;61846;52.970;-3.168;2022-11-20T11:07:12;99626.20;;;12.18;40.19
73566;BME280;61846;52.970;-3.168;2022-11-20T11:09:35;99624.97;;;11.93;40.39
73566;BME280;61846;52.970;-3.168;2022-11-20T11:11:59;99628.01;;;11.70;40.32
73566;BME280;61846;52.970;-3.168;2022-11-20T11:14:24;99626.65;;;11.16;41.47
73566;BME280;61846;52.970;-3.168;2022-11-20T11:16:51;99625.40;;;11.61;42.08
73566;BME280;61846;52.970;-3.168;2022-11-20T11:19:15;99618.12;;;10.76;43.01
73566;BME280;61846;52.970;-3.168;2022-11-20T11:21:46;99608.27;;;10.89;42.50
73566;BME280;61846;52.970;-3.168;2022-11-20T11:24:15;99594.34;;;10.48;43.97
73566;BME280;61846;52.970;-3.168;2022-11-20T11:26:32;99593.54;;;10.73;42.77
73566;BME280;61846;52.970;-3.168;2022-11-20T11:28:58;99585.19;;;10.38;43.92
73566;BME280;61846;52.970;-3.168;2022-11-20T11:31:25;99579.39;;;10.43;43.91
73566;BME280;61846;52.970;-3.168;2022-11-20T11:33:48;99585.49;;;9.98;44.22
73566;BME280;61846;52.970;-3.168;2022-11-20T11:36:20;99588.10;;;11.04;42.60
73566;BME280;61846;52.970;-3.168;2022-11-20T11:38:41;99576.85;;;11.49;41.11
73566;BME280;61846;52.970;-3.168;2022-11-20T11:41:06;99580.27;;;11.48;41.27
73566;BME280;61846;52.970;-3.168;2022-11-20T11:43:32;99585.20;;;12.01;41.10
73566;BME280;61846;52.970;-3.168;2022-11-20T11:45:56;99592.97;;;11.72;40.03
73566;BME280;61846;52.970;-3.168;2022-11-20T11:48:21;99592.86;;;12.17;39.32
73566;BME280;61846;52.970;-3.168;2022-11-20T11:50:49;99590.04;;;12.59;38.17
73566;BME280;61846;52.970;-3.168;2022-11-20T11:53:14;99588.94;;;12.65;39.14
73566;BME280;61846;52.970;-3.168;2022-11-20T11:55:42;99580.32;;;12.70;38.11
73566;BME280;61846;52.970;-3.168;2022-11-20T11:58:15;99578.98;;;12.42;38.44
73566;BME280;61846;52.970;-3.168;2022-11-20T12:00:29;99588.71;;;13.05;37.52
73566;BME280;61846;52.970;-3.168;2022-11-20T12:03:04;99597.16;;;13.09;37.06
73566;BME280;61846;52.970;-3.168;2022-11-20T12:05:24;99593.82;;;13.19;37.51
73566;BME280;61846;52.970;-3.168;2022-11-20T12:07:47;99582.06;;;13.41;36.70
73566;BME280;61846;52.970;-3.168;2022-11-20T12:10:17;99585.10;;;13.40;36.82
73566;BME280;61846;52.970;-3.168;2022-11-20T12:12:40;99587.41;;;12.28;38.36
73566;BME280;61846;52.970;-3.168;2022-11-20T12:15:02;99587.94;;;12.88;37.36
73566;BME280;61846;52.970;-3.168;2022-11-20T12:17:27;99594.74;;;13.43;37.80
73566;BME280;61846;52.970;-3.168;2022-11-20T12:19:53;99596.84;;;13.98;37.45
73566;BME280;61846;52.970;-3.168;2022-11-20T12:22:28;99604.18;;;13.75;37.04
73566;BME280;61846;52.970;-3.168;2022-11-20T12:24:52;99608.59;;;13.92;36.34
73566;BME280;61846;52.970;-3.168;2022-11-20T12:29:43;99606.36;;;13.84;36.61
73566;BME280;61846;52.970;-3.168;2022-11-20T12:34:39;99603.21;;;13.99;36.68
73566;BME280;61846;52.970;-3.168;2022-11-20T12:36:56;99606.45;;;14.01;37.21
73566;BME280;61846;52.970;-3.168;2022-11-20T12:39:26;99611.94;;;14.30;36.36
73566;BME280;61846;52.970;-3.168;2022-11-20T12:41:49;99616.30;;;13.95;36.23
73566;BME280;61846;52.970;-3.168;2022-11-20T12:44:18;99630.12;;;12.58;37.70
73566;BME280;61846;52.970;-3.168;2022-11-20T12:46:35;99628.87;;;12.92;37.59
73566;BME280;61846;52.970;-3.168;2022-11-20T12:49:07;99627.89;;;12.95;37.96